sensor_id;sensor_type;location;lat;lon;timestamp;pressure;altitude;pressure_sealevel;temperature;humidity
61384;BME280;63511;49.346;8.798;2023-02-28T00:00:35;101137.44;;;2.82;55.68
61384;BME280;63511;49.346;8.798;2023-02-28T00:03:02;101137.22;;;2.88;55.05
61384;BME280;63511;49.346;8.798;2023-02-28T00:05:29;101138.94;;;2.66;55.94
61384;BME280;63511;49.346;8.798;2023-02-28T00:07:56;101133.44;;;2.69;55.40
61384;BME280;63511;49.346;8.798;2023-02-28T00:10:24;101140.84;;;2.46;56.80
61384;BME280;63511;49.346;8.798;2023-02-28T00:12:53;101138.69;;;2.49;57.34
61384;BME280;63511;49.346;8.798;2023-02-28T00:15:23;101143.53;;;2.40;56.22
61384;BME280;63511;49.346;8.798;2023-02-28T00:17:50;101139.31;;;2.32;56.18
61384;BME280;63511;49.346;8.798;2023-02-28T00:20:17;101133.56;;;2.40;56.58
61384;BME280;63511;49.346;8.798;2023-02-28T00:22:45;101134.50;;;2.34;57.08
61384;BME280;63511;49.346;8.798;2023-02-28T00:25:14;101140.13;;;2.10;58.27
61384;BME280;63511;49.346;8.798;2023-02-28T00:27:42;101146.38;;;2.06;58.52
61384;BME280;63511;49.346;8.798;2023-02-28T00:30:11;101135.75;;;1.72;60.08
61384;BME280;63511;49.346;8.798;2023-02-28T00:32:39;101146.19;;;1.98;57.68
61384;BME280;63511;49.346;8.798;2023-02-28T00:35:07;101134.47;;;1.97;59.23
61384;BME280;63511;49.346;8.798;2023-02-28T00:37:34;101133.28;;;1.79;58.66
61384;BME280;63511;49.346;8.798;2023-02-28T00:40:01;101133.16;;;2.07;58.87
61384;BME280;63511;49.346;8.798;2023-02-28T00:42:29;101140.19;;;1.89;58.59
61384;BME280;63511;49.346;8.798;2023-02-28T00:44:56;101136.72;;;2.09;58.23
61384;BME280;63511;49.346;8.798;2023-02-28T00:47:22;101138.84;;;2.13;57.73
61384;BME280;63511;49.346;8.798;2023-02-28T00:49:50;101139.41;;;2.11;58.24
61384;BME280;63511;49.346;8.798;2023-02-28T00:52:17;101139.16;;;2.24;57.16
61384;BME280;63511;49.346;8.798;2023-02-28T00:54:43;101140.63;;;2.59;56.45
61384;BME280;63511;49.346;8.798;2023-02-28T00:57:10;101139.97;;;2.45;57.43
61384;BME280;63511;49.346;8.798;2023-02-28T00:59:36;101126.09;;;2.40;56.52
61384;BME280;63511;49.346;8.798;2023-02-28T01:02:03;101131.38;;;2.50;56.88
61384;BME280;63511;49.346;8.798;2023-02-28T01:04:29;101131.94;;;2.48;57.45
61384;BME280;63511;49.346;8.798;2023-02-28T01:06:57;101143.22;;;2.30;58.20
61384;BME280;63511;49.346;8.798;2023-02-28T01:09:24;101139.97;;;2.45;56.94
61384;BME280;63511;49.346;8.798;2023-02-28T01:11:50;101135.75;;;2.30;57.64
61384;BME280;63511;49.346;8.798;2023-02-28T01:14:17;101129.56;;;2.27;57.79
61384;BME280;63511;49.346;8.798;2023-02-28T01:16:44;101132.53;;;2.38;57.30
61384;BME280;63511;49.346;8.798;2023-02-28T01:19:11;101126.88;;;2.62;57.04
61384;BME280;63511;49.346;8.798;2023-02-28T01:21:38;101122.13;;;2.49;57.21
61384;BME280;63511;49.346;8.798;2023-02-28T01:24:06;101133.91;;;1.99;59.00
61384;BME280;63511;49.346;8.798;2023-02-28T01:26:33;101133.72;;;2.12;58.91
61384;BME280;63511;49.346;8.798;2023-02-28T01:28:59;101127.09;;;2.20;58.61
61384;BME280;63511;49.346;8.798;2023-02-28T01:31:26;101127.69;;;2.40;57.67
61384;BME280;63511;49.346;8.798;2023-02-28T01:33:52;101130.88;;;2.46;57.88
61384;BME280;63511;49.346;8.798;2023-02-28T01:36:21;101128.56;;;2.47;56.86
61384;BME280;63511;49.346;8.798;2023-02-28T01:38:48;101129.69;;;2.35;57.76
61384;BME280;63511;49.346;8.798;2023-02-28T01:41:19;101137.63;;;2.10;59.07
61384;BME280;63511;49.346;8.798;2023-02-28T01:43:57;101130.16;;;2.03;58.89
61384;BME280;63511;49.346;8.798;2023-02-28T01:46:24;101129.03;;;2.22;58.29
61384;BME280;63511;49.346;8.798;2023-02-28T01:48:53;101127.78;;;2.19;59.58
61384;BME280;63511;49.346;8.798;2023-02-28T01:51:23;101125.09;;;2.31;58.42
61384;BME280;63511;49.346;8.798;2023-02-28T01:53:55;101127.41;;;1.79;59.74
61384;BME280;63511;49.346;8.798;2023-02-28T01:56:27;101127.63;;;2.17;58.74
61384;BME280;63511;49.346;8.798;2023-02-28T01:58:55;101115.00;;;2.23;58.50
61384;BME280;63511;49.346;8.798;2023-02-28T02:01:23;101113.25;;;2.44;57.73
61384;BME280;63511;49.346;8.798;2023-02-28T02:03:55;101117.25;;;2.28;58.75
61384;BME280;63511;49.346;8.798;2023-02-28T02:06:25;101119.06;;;2.22;58.30
61384;BME280;63511;49.346;8.798;2023-02-28T02:08:54;101111.94;;;2.18;58.19
61384;BME280;63511;49.346;8.798;2023-02-28T02:11:21;101117.75;;;1.96;58.91
61384;BME280;63511;49.346;8.798;2023-02-28T02:14:12;101116.81;;;2.02;59.04
61384;BME280;63511;49.346;8.798;2023-02-28T02:16:52;101114.88;;;2.00;60.06
61384;BME280;63511;49.346;8.798;2023-02-28T02:19:44;101109.72;;;2.05;59.62
61384;BME280;63511;49.346;8.798;2023-02-28T02:25:25;101112.00;;;2.04;58.58
61384;BME280;63511;49.346;8.798;2023-02-28T02:28:11;101104.47;;;2.25;58.26
61384;BME280;63511;49.346;8.798;2023-02-28T02:34:22;101104.72;;;2.05;59.21
61384;BME280;63511;49.346;8.798;2023-02-28T02:36:53;101097.66;;;2.31;59.20
61384;BME280;63511;49.346;8.798;2023-02-28T02:39:30;101102.63;;;1.87;59.60
61384;BME280;63511;49.346;8.798;2023-02-28T02:42:01;101099.59;;;1.97;59.36
61384;BME280;63511;49.346;8.798;2023-02-28T02:44:31;101098.53;;;1.95;60.19
61384;BME280;63511;49.346;8.798;2023-02-28T02:47:07;101099.69;;;2.20;59.79
61384;BME280;63511;49.346;8.798;2023-02-28T02:49:38;101096.88;;;2.02;60.04
61384;BME280;63511;49.346;8.798;2023-02-28T02:52:10;101103.97;;;2.13;59.12
61384;BME280;63511;49.346;8.798;2023-02-28T02:54:41;101099.34;;;2.17;58.84
61384;BME280;63511;49.346;8.798;2023-02-28T02:57:13;101106.97;;;2.18;58.41
61384;BME280;63511;49.346;8.798;2023-02-28T02:59:42;101108.13;;;1.92;59.65
61384;BME280;63511;49.346;8.798;2023-02-28T03:02:12;101101.88;;;2.02;60.55
61384;BME280;63511;49.346;8.798;2023-02-28T03:04:43;101098.34;;;1.93;59.60
61384;BME280;63511;49.346;8.798;2023-02-28T03:07:11;101103.44;;;2.16;59.18
61384;BME280;63511;49.346;8.798;2023-02-28T03:09:38;101105.75;;;2.14;59.41
61384;BME280;63511;49.346;8.798;2023-02-28T03:12:09;101100.66;;;1.99;59.47
61384;BME280;63511;49.346;8.798;2023-02-28T03:14:47;101103.16;;;1.92;59.61
61384;BME280;63511;49.346;8.798;2023-02-28T03:17:27;101099.16;;;2.15;58.74
61384;BME280;63511;49.346;8.798;2023-02-28T03:20:04;101108.50;;;1.88;60.07
61384;BME280;63511;49.346;8.798;2023-02-28T03:22:51;101101.03;;;1.88;60.17
61384;BME280;63511;49.346;8.798;2023-02-28T03:25:21;101101.84;;;2.09;59.28
61384;BME280;63511;49.346;8.798;2023-02-28T03:28:00;101094.50;;;2.18;58.98
61384;BME280;63511;49.346;8.798;2023-02-28T03:30:35;101103.28;;;2.07;59.53
61384;BME280;63511;49.346;8.798;2023-02-28T03:33:07;101104.59;;;1.97;59.93
61384;BME280;63511;49.346;8.798;2023-02-28T03:35:39;101102.34;;;1.63;60.71
61384;BME280;63511;49.346;8.798;2023-02-28T03:38:10;101109.50;;;1.60;61.39
61384;BME280;63511;49.346;8.798;2023-02-28T03:40:43;101100.38;;;1.75;60.49
61384;BME280;63511;49.346;8.798;2023-02-28T03:43:14;101106.59;;;1.71;61.04
61384;BME280;63511;49.346;8.798;2023-02-28T03:45:45;101098.34;;;1.93;59.73
61384;BME280;63511;49.346;8.798;2023-02-28T03:48:17;101102.53;;;1.64;60.55
61384;BME280;63511;49.346;8.798;2023-02-28T03:50:49;101102.69;;;1.73;60.65
61384;BME280;63511;49.346;8.798;2023-02-28T03:53:19;101102.31;;;1.77;60.25
61384;BME280;63511;49.346;8.798;2023-02-28T03:55:48;101103.53;;;1.88;60.25
61384;BME280;63511;49.346;8.798;2023-02-28T03:58:20;101100.00;;;1.86;60.51
61384;BME280;63511;49.346;8.798;2023-02-28T04:00:50;101100.00;;;1.71;60.69
61384;BME280;63511;49.346;8.798;2023-02-28T04:03:21;101100.44;;;1.53;62.00
61384;BME280;63511;49.346;8.798;2023-02-28T04:05:52;101102.19;;;1.61;61.48
61384;BME280;63511;49.346;8.798;2023-02-28T04:08:20;101099.31;;;1.80;60.22
61384;BME280;63511;49.346;8.798;2023-02-28T04:10:51;101109.81;;;1.70;61.22
61384;BME280;63511;49.346;8.798;2023-02-28T04:13:20;101100.25;;;1.59;61.19
61384;BME280;63511;49.346;8.798;2023-02-28T04:15:46;101101.59;;;1.85;60.82
61384;BME280;63511;49.346;8.798;2023-02-28T04:18:13;101094.84;;;1.84;60.11
61384;BME280;63511;49.346;8.798;2023-02-28T04:20:39;101106.19;;;1.96;60.16
61384;BME280;63511;49.346;8.798;2023-02-28T04:23:07;101083.66;;;1.81;59.72
61384;BME280;63511;49.346;8.798;2023-02-28T04:25:34;101100.72;;;1.85;59.78
61384;BME280;63511;49.346;8.798;2023-02-28T04:28:00;101098.16;;;1.92;59.97
61384;BME280;63511;49.346;8.798;2023-02-28T04:30:27;101091.84;;;1.80;60.77
61384;BME280;63511;49.346;8.798;2023-02-28T04:32:54;101101.72;;;1.94;60.49
61384;BME280;63511;49.346;8.798;2023-02-28T04:35:21;101101.78;;;1.73;61.65
61384;BME280;63511;49.346;8.798;2023-02-28T04:37:48;101106.47;;;1.55;61.29
61384;BME280;63511;49.346;8.798;2023-02-28T04:40:16;101106.94;;;1.81;60.65
61384;BME280;63511;49.346;8.798;2023-02-28T04:42:42;101103.00;;;1.83;60.61
61384;BME280;63511;49.346;8.798;2023-02-28T04:45:09;101107.63;;;1.87;60.22
61384;BME280;63511;49.346;8.798;2023-02-28T04:47:36;101095.78;;;1.63;61.03
61384;BME280;63511;49.346;8.798;2023-02-28T04:50:03;101103.38;;;1.79;60.96
61384;BME280;63511;49.346;8.798;2023-02-28T04:52:30;101105.13;;;1.87;60.13
61384;BME280;63511;49.346;8.798;2023-02-28T04:54:56;101098.09;;;2.13;60.19
61384;BME280;63511;49.346;8.798;2023-02-28T04:57:24;101102.84;;;2.26;59.68
61384;BME280;63511;49.346;8.798;2023-02-28T04:59:50;101102.81;;;1.89;60.17
61384;BME280;63511;49.346;8.798;2023-02-28T05:02:17;101099.56;;;2.04;60.39
61384;BME280;63511;49.346;8.798;2023-02-28T05:04:45;101107.03;;;2.11;60.75
61384;BME280;63511;49.346;8.798;2023-02-28T05:07:11;101101.53;;;1.99;60.45
61384;BME280;63511;49.346;8.798;2023-02-28T05:09:38;101107.66;;;2.24;59.49
61384;BME280;63511;49.346;8.798;2023-02-28T05:12:05;101094.97;;;2.00;59.67
61384;BME280;63511;49.346;8.798;2023-02-28T05:14:33;101107.63;;;2.31;59.25
61384;BME280;63511;49.346;8.798;2023-02-28T05:16:59;101111.16;;;2.33;59.07
61384;BME280;63511;49.346;8.798;2023-02-28T05:19:25;101111.31;;;1.98;60.27
61384;BME280;63511;49.346;8.798;2023-02-28T05:21:53;101116.34;;;1.84;60.35
61384;BME280;63511;49.346;8.798;2023-02-28T05:24:21;101111.25;;;2.19;59.09
61384;BME280;63511;49.346;8.798;2023-02-28T05:26:49;101116.16;;;2.33;59.25
61384;BME280;63511;49.346;8.798;2023-02-28T05:29:17;101117.28;;;2.21;59.55
61384;BME280;63511;49.346;8.798;2023-02-28T05:31:45;101119.19;;;2.38;59.16
61384;BME280;63511;49.346;8.798;2023-02-28T05:34:11;101115.59;;;1.99;59.51
61384;BME280;63511;49.346;8.798;2023-02-28T05:36:38;101119.28;;;2.17;59.13
61384;BME280;63511;49.346;8.798;2023-02-28T05:39:05;101123.38;;;2.09;60.05
61384;BME280;63511;49.346;8.798;2023-02-28T05:41:32;101126.56;;;2.15;59.77
61384;BME280;63511;49.346;8.798;2023-02-28T05:43:59;101114.31;;;2.09;59.74
61384;BME280;63511;49.346;8.798;2023-02-28T05:46:26;101124.50;;;2.34;58.24
61384;BME280;63511;49.346;8.798;2023-02-28T05:48:54;101129.03;;;2.22;59.10
61384;BME280;63511;49.346;8.798;2023-02-28T05:51:21;101128.88;;;2.21;58.80
61384;BME280;63511;49.346;8.798;2023-02-28T05:53:48;101122.03;;;1.83;59.88
61384;BME280;63511;49.346;8.798;2023-02-28T05:56:14;101125.34;;;2.11;59.20
61384;BME280;63511;49.346;8.798;2023-02-28T05:58:41;101125.88;;;2.09;59.06
61384;BME280;63511;49.346;8.798;2023-02-28T06:01:31;101129.84;;;2.00;59.21
61384;BME280;63511;49.346;8.798;2023-02-28T06:04:00;101112.97;;;1.83;59.56
61384;BME280;63511;49.346;8.798;2023-02-28T06:06:27;101135.13;;;2.17;59.11
61384;BME280;63511;49.346;8.798;2023-02-28T06:08:55;101132.19;;;2.28;58.75
61384;BME280;63511;49.346;8.798;2023-02-28T06:11:21;101134.63;;;2.05;58.94
61384;BME280;63511;49.346;8.798;2023-02-28T06:13:53;101133.03;;;1.99;59.21
61384;BME280;63511;49.346;8.798;2023-02-28T06:16:19;101140.75;;;2.23;58.30
61384;BME280;63511;49.346;8.798;2023-02-28T06:18:46;101147.59;;;2.10;58.87
61384;BME280;63511;49.346;8.798;2023-02-28T06:21:14;101145.94;;;2.25;58.50
61384;BME280;63511;49.346;8.798;2023-02-28T06:23:40;101142.03;;;2.12;58.61
61384;BME280;63511;49.346;8.798;2023-02-28T06:26:07;101147.44;;;2.01;60.04
61384;BME280;63511;49.346;8.798;2023-02-28T06:28:33;101143.78;;;2.28;58.60
61384;BME280;63511;49.346;8.798;2023-02-28T06:31:05;101150.84;;;1.95;59.90
61384;BME280;63511;49.346;8.798;2023-02-28T06:33:32;101146.84;;;2.18;59.03
61384;BME280;63511;49.346;8.798;2023-02-28T06:35:59;101153.91;;;2.36;58.95
61384;BME280;63511;49.346;8.798;2023-02-28T06:38:27;101145.44;;;2.13;58.56
61384;BME280;63511;49.346;8.798;2023-02-28T06:40:55;101154.78;;;2.37;58.33
61384;BME280;63511;49.346;8.798;2023-02-28T06:43:24;101149.50;;;2.27;58.66
61384;BME280;63511;49.346;8.798;2023-02-28T06:45:53;101147.78;;;2.11;59.17
61384;BME280;63511;49.346;8.798;2023-02-28T06:48:20;101153.09;;;2.07;59.26
61384;BME280;63511;49.346;8.798;2023-02-28T06:50:47;101157.41;;;1.87;60.51
61384;BME280;63511;49.346;8.798;2023-02-28T06:53:13;101157.41;;;2.45;58.61
61384;BME280;63511;49.346;8.798;2023-02-28T06:55:42;101149.19;;;2.53;58.25
61384;BME280;63511;49.346;8.798;2023-02-28T06:58:08;101156.13;;;2.12;59.92
61384;BME280;63511;49.346;8.798;2023-02-28T07:00:44;101162.19;;;2.81;57.75
61384;BME280;63511;49.346;8.798;2023-02-28T07:03:11;101156.09;;;2.63;58.81
61384;BME280;63511;49.346;8.798;2023-02-28T07:05:39;101154.31;;;2.62;57.91
61384;BME280;63511;49.346;8.798;2023-02-28T07:08:05;101168.84;;;2.36;58.32
61384;BME280;63511;49.346;8.798;2023-02-28T07:10:32;101167.91;;;2.80;57.77
61384;BME280;63511;49.346;8.798;2023-02-28T07:13:00;101168.44;;;3.07;56.92
61384;BME280;63511;49.346;8.798;2023-02-28T07:15:27;101165.34;;;2.64;57.58
61384;BME280;63511;49.346;8.798;2023-02-28T07:17:53;101183.19;;;2.53;58.55
61384;BME280;63511;49.346;8.798;2023-02-28T07:20:21;101185.88;;;2.84;57.88
61384;BME280;63511;49.346;8.798;2023-02-28T07:22:48;101191.59;;;2.46;58.83
61384;BME280;63511;49.346;8.798;2023-02-28T07:25:20;101183.72;;;2.87;57.91
61384;BME280;63511;49.346;8.798;2023-02-28T07:27:47;101182.41;;;2.98;57.40
61384;BME280;63511;49.346;8.798;2023-02-28T07:30:15;101183.94;;;3.34;56.47
61384;BME280;63511;49.346;8.798;2023-02-28T07:32:42;101185.47;;;3.64;55.59
61384;BME280;63511;49.346;8.798;2023-02-28T07:35:09;101174.75;;;2.96;56.32
61384;BME280;63511;49.346;8.798;2023-02-28T07:37:35;101181.19;;;3.17;57.53
61384;BME280;63511;49.346;8.798;2023-02-28T07:40:02;101177.72;;;3.31;56.71
61384;BME280;63511;49.346;8.798;2023-02-28T07:42:32;101175.66;;;3.20;55.62
61384;BME280;63511;49.346;8.798;2023-02-28T07:44:58;101175.72;;;3.35;56.22
61384;BME280;63511;49.346;8.798;2023-02-28T07:47:26;101176.66;;;3.52;55.59
61384;BME280;63511;49.346;8.798;2023-02-28T07:49:54;101181.13;;;3.31;55.96
61384;BME280;63511;49.346;8.798;2023-02-28T07:52:21;101178.38;;;3.37;56.69
61384;BME280;63511;49.346;8.798;2023-02-28T07:54:48;101179.66;;;3.11;56.07
61384;BME280;63511;49.346;8.798;2023-02-28T07:57:15;101185.44;;;3.25;56.66
61384;BME280;63511;49.346;8.798;2023-02-28T07:59:42;101187.19;;;3.49;55.68
61384;BME280;63511;49.346;8.798;2023-02-28T08:02:11;101186.63;;;3.90;54.74
61384;BME280;63511;49.346;8.798;2023-02-28T08:04:40;101187.09;;;3.40;56.79
61384;BME280;63511;49.346;8.798;2023-02-28T08:07:07;101198.97;;;3.50;55.78
61384;BME280;63511;49.346;8.798;2023-02-28T08:09:35;101188.97;;;3.50;55.93
61384;BME280;63511;49.346;8.798;2023-02-28T08:12:01;101192.31;;;3.35;56.30
61384;BME280;63511;49.346;8.798;2023-02-28T08:14:28;101186.91;;;3.39;55.78
61384;BME280;63511;49.346;8.798;2023-02-28T08:16:54;101195.91;;;3.53;56.45
61384;BME280;63511;49.346;8.798;2023-02-28T08:19:21;101191.63;;;3.29;56.44
61384;BME280;63511;49.346;8.798;2023-02-28T08:21:49;101183.63;;;3.70;55.16
61384;BME280;63511;49.346;8.798;2023-02-28T08:24:15;101190.25;;;3.85;55.16
61384;BME280;63511;49.346;8.798;2023-02-28T08:26:42;101192.28;;;3.80;55.34
61384;BME280;63511;49.346;8.798;2023-02-28T08:29:08;101185.34;;;3.78;54.56
61384;BME280;63511;49.346;8.798;2023-02-28T08:31:35;101173.13;;;3.88;55.85
61384;BME280;63511;49.346;8.798;2023-02-28T08:34:05;101178.59;;;4.08;54.24
61384;BME280;63511;49.346;8.798;2023-02-28T08:36:31;101175.84;;;3.98;53.89
61384;BME280;63511;49.346;8.798;2023-02-28T08:38:59;101177.75;;;3.85;54.52
61384;BME280;63511;49.346;8.798;2023-02-28T08:41:26;101173.84;;;4.03;54.40
61384;BME280;63511;49.346;8.798;2023-02-28T08:43:53;101177.25;;;4.19;53.71
61384;BME280;63511;49.346;8.798;2023-02-28T08:46:20;101173.50;;;4.15;53.63
61384;BME280;63511;49.346;8.798;2023-02-28T08:48:46;101166.75;;;4.14;54.36
61384;BME280;63511;49.346;8.798;2023-02-28T08:51:14;101172.84;;;4.09;52.96
61384;BME280;63511;49.346;8.798;2023-02-28T08:53:44;101175.06;;;4.22;54.30
61384;BME280;63511;49.346;8.798;2023-02-28T08:56:13;101175.63;;;4.35;53.75
61384;BME280;63511;49.346;8.798;2023-02-28T08:58:42;101177.22;;;4.35;53.56
61384;BME280;63511;49.346;8.798;2023-02-28T09:01:11;101180.63;;;4.19;53.29
61384;BME280;63511;49.346;8.798;2023-02-28T09:03:38;101180.19;;;4.55;54.25
61384;BME280;63511;49.346;8.798;2023-02-28T09:06:06;101187.78;;;4.16;53.03
61384;BME280;63511;49.346;8.798;2023-02-28T09:08:33;101181.91;;;4.32;53.38
61384;BME280;63511;49.346;8.798;2023-02-28T09:11:00;101188.44;;;4.22;52.87
61384;BME280;63511;49.346;8.798;2023-02-28T09:13:29;101171.53;;;4.76;52.45
61384;BME280;63511;49.346;8.798;2023-02-28T09:15:57;101184.38;;;4.87;51.76
61384;BME280;63511;49.346;8.798;2023-02-28T09:18:24;101191.16;;;4.64;52.67
61384;BME280;63511;49.346;8.798;2023-02-28T09:20:51;101179.59;;;4.73;51.84
61384;BME280;63511;49.346;8.798;2023-02-28T09:23:18;101172.72;;;4.79;51.55
61384;BME280;63511;49.346;8.798;2023-02-28T09:25:45;101181.53;;;4.76;51.21
61384;BME280;63511;49.346;8.798;2023-02-28T09:28:12;101173.19;;;4.44;52.26
61384;BME280;63511;49.346;8.798;2023-02-28T09:30:44;101186.47;;;4.36;52.31
61384;BME280;63511;49.346;8.798;2023-02-28T09:33:10;101177.09;;;4.57;51.49
61384;BME280;63511;49.346;8.798;2023-02-28T09:35:37;101177.03;;;4.64;51.16
61384;BME280;63511;49.346;8.798;2023-02-28T09:38:04;101164.31;;;4.79;51.56
61384;BME280;63511;49.346;8.798;2023-02-28T09:40:35;101166.03;;;4.71;51.67
61384;BME280;63511;49.346;8.798;2023-02-28T09:43:03;101171.88;;;5.11;51.89
61384;BME280;63511;49.346;8.798;2023-02-28T09:45:33;101177.75;;;4.63;52.29
61384;BME280;63511;49.346;8.798;2023-02-28T09:48:04;101170.97;;;4.62;51.32
61384;BME280;63511;49.346;8.798;2023-02-28T09:50:35;101167.56;;;5.02;51.80
61384;BME280;63511;49.346;8.798;2023-02-28T09:53:12;101166.00;;;4.87;51.02
61384;BME280;63511;49.346;8.798;2023-02-28T09:55:45;101167.91;;;5.13;51.94
61384;BME280;63511;49.346;8.798;2023-02-28T09:58:20;101167.84;;;4.96;50.85
61384;BME280;63511;49.346;8.798;2023-02-28T10:00:56;101160.59;;;5.56;51.60
61384;BME280;63511;49.346;8.798;2023-02-28T10:03:30;101170.69;;;5.74;51.24
61384;BME280;63511;49.346;8.798;2023-02-28T10:06:02;101170.31;;;5.53;49.61
61384;BME280;63511;49.346;8.798;2023-02-28T10:08:36;101166.31;;;5.55;51.04
61384;BME280;63511;49.346;8.798;2023-02-28T10:11:09;101171.63;;;5.91;51.20
61384;BME280;63511;49.346;8.798;2023-02-28T10:13:39;101168.72;;;6.04;49.44
61384;BME280;63511;49.346;8.798;2023-02-28T10:16:13;101170.50;;;5.64;49.31
61384;BME280;63511;49.346;8.798;2023-02-28T10:18:46;101179.56;;;5.46;48.81
61384;BME280;63511;49.346;8.798;2023-02-28T10:21:19;101177.31;;;5.40;49.47
61384;BME280;63511;49.346;8.798;2023-02-28T10:23:47;101171.25;;;5.71;48.96
61384;BME280;63511;49.346;8.798;2023-02-28T10:26:17;101174.88;;;5.90;49.79
61384;BME280;63511;49.346;8.798;2023-02-28T10:28:44;101179.94;;;6.16;47.85
61384;BME280;63511;49.346;8.798;2023-02-28T10:31:14;101174.00;;;6.07;49.01
61384;BME280;63511;49.346;8.798;2023-02-28T10:33:44;101179.19;;;6.09;48.98
61384;BME280;63511;49.346;8.798;2023-02-28T10:36:14;101178.84;;;5.97;47.80
61384;BME280;63511;49.346;8.798;2023-02-28T10:38:44;101171.81;;;6.10;48.81
61384;BME280;63511;49.346;8.798;2023-02-28T10:41:13;101167.56;;;6.35;48.16
61384;BME280;63511;49.346;8.798;2023-02-28T10:43:42;101164.63;;;6.48;47.75
61384;BME280;63511;49.346;8.798;2023-02-28T10:46:14;101170.06;;;6.26;48.07
61384;BME280;63511;49.346;8.798;2023-02-28T10:49:00;101164.88;;;6.59;48.30
61384;BME280;63511;49.346;8.798;2023-02-28T10:51:35;101174.81;;;6.32;46.46
61384;BME280;63511;49.346;8.798;2023-02-28T10:54:03;101167.25;;;6.49;47.70
61384;BME280;63511;49.346;8.798;2023-02-28T10:56:30;101162.38;;;6.76;48.81
61384;BME280;63511;49.346;8.798;2023-02-28T10:58:59;101171.38;;;6.66;47.65
61384;BME280;63511;49.346;8.798;2023-02-28T11:01:35;101163.28;;;6.60;47.65
61384;BME280;63511;49.346;8.798;2023-02-28T11:04:17;101160.91;;;6.78;46.93
61384;BME280;63511;49.346;8.798;2023-02-28T11:06:44;101160.63;;;6.15;47.05
61384;BME280;63511;49.346;8.798;2023-02-28T11:09:19;101156.19;;;6.38;47.53
61384;BME280;63511;49.346;8.798;2023-02-28T11:11:49;101160.56;;;6.84;46.32
61384;BME280;63511;49.346;8.798;2023-02-28T11:14:20;101158.56;;;6.37;48.45
61384;BME280;63511;49.346;8.798;2023-02-28T11:16:48;101161.81;;;6.62;47.98
61384;BME280;63511;49.346;8.798;2023-02-28T11:19:19;101156.34;;;6.23;47.52
61384;BME280;63511;49.346;8.798;2023-02-28T11:21:52;101159.16;;;6.34;47.41
61384;BME280;63511;49.346;8.798;2023-02-28T11:24:23;101154.44;;;5.70;48.70
61384;BME280;63511;49.346;8.798;2023-02-28T11:26:51;101157.50;;;6.18;48.36
61384;BME280;63511;49.346;8.798;2023-02-28T11:29:20;101154.13;;;6.00;48.07
61384;BME280;63511;49.346;8.798;2023-02-28T11:32:16;101160.31;;;6.29;47.38
61384;BME280;63511;49.346;8.798;2023-02-28T11:34:47;101148.38;;;6.35;47.45
61384;BME280;63511;49.346;8.798;2023-02-28T11:37:27;101145.25;;;6.64;47.63
61384;BME280;63511;49.346;8.798;2023-02-28T11:39:55;101135.09;;;6.62;46.76
61384;BME280;63511;49.346;8.798;2023-02-28T11:42:49;101137.69;;;6.98;46.59
61384;BME280;63511;49.346;8.798;2023-02-28T11:45:45;101141.81;;;6.89;46.04
61384;BME280;63511;49.346;8.798;2023-02-28T11:48:20;101141.09;;;6.81;48.20
61384;BME280;63511;49.346;8.798;2023-02-28T11:51:00;101139.38;;;6.46;47.14
61384;BME280;63511;49.346;8.798;2023-02-28T11:53:43;101149.22;;;5.93;46.88
61384;BME280;63511;49.346;8.798;2023-02-28T11:56:20;101142.19;;;6.32;46.52
61384;BME280;63511;49.346;8.798;2023-02-28T11:58:57;101133.91;;;6.24;46.62
61384;BME280;63511;49.346;8.798;2023-02-28T12:01:38;101135.53;;;6.50;46.22
61384;BME280;63511;49.346;8.798;2023-02-28T12:04:24;101134.94;;;6.44;45.82
61384;BME280;63511;49.346;8.798;2023-02-28T12:06:57;101140.97;;;6.71;46.68
61384;BME280;63511;49.346;8.798;2023-02-28T12:09:47;101140.06;;;6.79;45.47
61384;BME280;63511;49.346;8.798;2023-02-28T12:12:23;101127.25;;;7.21;45.78
61384;BME280;63511;49.346;8.798;2023-02-28T12:15:13;101132.63;;;7.70;45.21
61384;BME280;63511;49.346;8.798;2023-02-28T12:17:51;101124.34;;;8.17;44.53
61384;BME280;63511;49.346;8.798;2023-02-28T12:20:26;101119.81;;;8.04;44.08
61384;BME280;63511;49.346;8.798;2023-02-28T12:23:10;101118.84;;;7.12;44.58
61384;BME280;63511;49.346;8.798;2023-02-28T12:25:49;101119.50;;;7.64;43.85
61384;BME280;63511;49.346;8.798;2023-02-28T12:28:21;101126.34;;;7.84;44.07
61384;BME280;63511;49.346;8.798;2023-02-28T12:30:53;101113.31;;;8.25;45.21
61384;BME280;63511;49.346;8.798;2023-02-28T12:33:22;101128.00;;;8.02;44.52
61384;BME280;63511;49.346;8.798;2023-02-28T12:35:53;101124.34;;;7.71;45.04
61384;BME280;63511;49.346;8.798;2023-02-28T12:38:26;101118.25;;;7.50;44.77
61384;BME280;63511;49.346;8.798;2023-02-28T12:40:57;101119.97;;;7.60;46.45
61384;BME280;63511;49.346;8.798;2023-02-28T12:43:31;101118.47;;;7.62;44.26
61384;BME280;63511;49.346;8.798;2023-02-28T12:46:02;101091.00;;;8.01;42.92
61384;BME280;63511;49.346;8.798;2023-02-28T12:48:36;101109.22;;;7.98;43.94
61384;BME280;63511;49.346;8.798;2023-02-28T12:51:05;101125.41;;;7.92;44.86
61384;BME280;63511;49.346;8.798;2023-02-28T12:54:04;101109.75;;;7.86;44.50
61384;BME280;63511;49.346;8.798;2023-02-28T12:56:42;101112.91;;;7.56;44.47
61384;BME280;63511;49.346;8.798;2023-02-28T12:59:14;101117.47;;;7.87;43.73
61384;BME280;63511;49.346;8.798;2023-02-28T13:01:56;101109.31;;;7.35;45.13
61384;BME280;63511;49.346;8.798;2023-02-28T13:04:46;101112.13;;;7.57;45.22
61384;BME280;63511;49.346;8.798;2023-02-28T13:10:42;101108.25;;;7.69;44.34
61384;BME280;63511;49.346;8.798;2023-02-28T13:13:17;101104.44;;;7.83;44.38
61384;BME280;63511;49.346;8.798;2023-02-28T13:15:59;101106.38;;;7.85;44.58
61384;BME280;63511;49.346;8.798;2023-02-28T13:18:30;101114.22;;;7.61;44.29
61384;BME280;63511;49.346;8.798;2023-02-28T13:20:57;101105.22;;;7.82;43.22
61384;BME280;63511;49.346;8.798;2023-02-28T13:23:41;101101.44;;;7.68;44.19
61384;BME280;63511;49.346;8.798;2023-02-28T13:29:31;101116.75;;;7.25;45.92